sensor_id;sensor_type;location;lat;lon;timestamp;temperature;humidity
65995;HTU21D;52764;51.036;5.852;2022-10-23T00:00:21;15.13;78.62
65995;HTU21D;52764;51.036;5.852;2022-10-23T00:02:53;15.13;78.53
65995;HTU21D;52764;51.036;5.852;2022-10-23T00:05:20;15.04;78.67
65995;HTU21D;52764;51.036;5.852;2022-10-23T00:07:54;15.03;78.79
65995;HTU21D;52764;51.036;5.852;2022-10-23T00:10:21;15.06;78.65
65995;HTU21D;52764;51.036;5.852;2022-10-23T00:12:47;15.01;78.36
65995;HTU21D;52764;51.036;5.852;2022-10-23T00:15:15;14.99;78.79
65995;HTU21D;52764;51.036;5.852;2022-10-23T00:17:41;15.00;78.78
65995;HTU21D;52764;51.036;5.852;2022-10-23T00:20:08;15.01;78.75
65995;HTU21D;52764;51.036;5.852;2022-10-23T00:22:34;15.01;78.74
65995;HTU21D;52764;51.036;5.852;2022-10-23T00:25:00;15.02;78.81
65995;HTU21D;52764;51.036;5.852;2022-10-23T00:27:26;15.03;78.82
65995;HTU21D;52764;51.036;5.852;2022-10-23T00:29:51;14.99;78.95
65995;HTU21D;52764;51.036;5.852;2022-10-23T00:32:17;10.72;79.29
65995;HTU21D;52764;51.036;5.852;2022-10-23T00:34:43;14.75;79.77
65995;HTU21D;52764;51.036;5.852;2022-10-23T00:37:09;14.59;80.40
65995;HTU21D;52764;51.036;5.852;2022-10-23T00:39:34;14.41;81.07
65995;HTU21D;52764;51.036;5.852;2022-10-23T00:42:00;14.48;81.29
65995;HTU21D;52764;51.036;5.852;2022-10-23T00:46:55;14.56;81.09
65995;HTU21D;52764;51.036;5.852;2022-10-23T00:49:22;14.60;80.75
65995;HTU21D;52764;51.036;5.852;2022-10-23T00:51:52;14.60;80.31
65995;HTU21D;52764;51.036;5.852;2022-10-23T00:54:24;14.62;80.60
65995;HTU21D;52764;51.036;5.852;2022-10-23T00:56:53;14.59;80.43
65995;HTU21D;52764;51.036;5.852;2022-10-23T00:59:20;14.41;80.36
65995;HTU21D;52764;51.036;5.852;2022-10-23T01:01:46;15.83;80.09
65995;HTU21D;52764;51.036;5.852;2022-10-23T01:04:12;14.75;79.65
65995;HTU21D;52764;51.036;5.852;2022-10-23T01:07:04;10.59;79.14
65995;HTU21D;52764;51.036;5.852;2022-10-23T01:15:25;14.54;79.03
65995;HTU21D;52764;51.036;5.852;2022-10-23T01:18:16;14.35;79.82
65995;HTU21D;52764;51.036;5.852;2022-10-23T01:21:13;14.25;80.46
65995;HTU21D;52764;51.036;5.852;2022-10-23T01:29:05;14.51;79.78
65995;HTU21D;52764;51.036;5.852;2022-10-23T01:31:40;14.55;79.47
65995;HTU21D;52764;51.036;5.852;2022-10-23T01:34:17;14.62;70.44
65995;HTU21D;52764;51.036;5.852;2022-10-23T01:36:47;15.76;78.72
65995;HTU21D;52764;51.036;5.852;2022-10-23T01:39:23;14.69;78.35
65995;HTU21D;52764;51.036;5.852;2022-10-23T01:42:07;14.70;77.92
65995;HTU21D;52764;51.036;5.852;2022-10-23T01:47:21;14.59;78.34
65995;HTU21D;52764;51.036;5.852;2022-10-23T01:50:04;14.58;78.61
65995;HTU21D;52764;51.036;5.852;2022-10-23T01:52:32;14.56;78.75
65995;HTU21D;52764;51.036;5.852;2022-10-23T01:54:59;14.60;78.55
65995;HTU21D;52764;51.036;5.852;2022-10-23T01:57:30;14.59;78.37
65995;HTU21D;52764;51.036;5.852;2022-10-23T02:00:07;14.59;78.37
65995;HTU21D;52764;51.036;5.852;2022-10-23T02:02:51;14.60;78.53
65995;HTU21D;52764;51.036;5.852;2022-10-23T02:05:26;14.59;78.67
65995;HTU21D;52764;51.036;5.852;2022-10-23T02:07:55;14.63;78.66
65995;HTU21D;52764;51.036;5.852;2022-10-23T02:13:33;14.63;78.56
65995;HTU21D;52764;51.036;5.852;2022-10-23T02:19:30;14.71;78.34
65995;HTU21D;52764;51.036;5.852;2022-10-23T02:22:18;14.80;78.14
65995;HTU21D;52764;51.036;5.852;2022-10-23T02:25:11;14.83;78.04
65995;HTU21D;52764;51.036;5.852;2022-10-23T02:27:45;14.85;78.07
65995;HTU21D;52764;51.036;5.852;2022-10-23T02:30:16;10.74;77.85
65995;HTU21D;52764;51.036;5.852;2022-10-23T02:32:50;14.99;77.76
65995;HTU21D;52764;51.036;5.852;2022-10-23T02:35:20;15.01;77.69
65995;HTU21D;52764;51.036;5.852;2022-10-23T02:37:57;15.08;77.56
65995;HTU21D;52764;51.036;5.852;2022-10-23T02:40:37;15.15;77.34
65995;HTU21D;52764;51.036;5.852;2022-10-23T02:43:25;15.19;77.16
65995;HTU21D;52764;51.036;5.852;2022-10-23T02:54:42;15.04;77.69
65995;HTU21D;52764;51.036;5.852;2022-10-23T03:00:34;14.86;78.36
65995;HTU21D;52764;51.036;5.852;2022-10-23T03:02:53;16.08;78.49
65995;HTU21D;52764;51.036;5.852;2022-10-23T03:05:25;14.72;78.83
65995;HTU21D;52764;51.036;5.852;2022-10-23T03:07:52;14.65;79.32
65995;HTU21D;52764;51.036;5.852;2022-10-23T03:10:18;14.63;79.88
65995;HTU21D;52764;51.036;5.852;2022-10-23T03:12:44;14.66;79.98
65995;HTU21D;52764;51.036;5.852;2022-10-23T03:15:12;14.65;80.34
65995;HTU21D;52764;51.036;5.852;2022-10-23T03:17:39;14.65;73.22
65995;HTU21D;52764;51.036;5.852;2022-10-23T03:20:06;-11.65;80.62
65995;HTU21D;52764;51.036;5.852;2022-10-23T03:22:34;14.71;80.77
65995;HTU21D;52764;51.036;5.852;2022-10-23T03:25:00;14.79;80.63
65995;HTU21D;52764;51.036;5.852;2022-10-23T03:27:28;14.88;80.36
65995;HTU21D;52764;51.036;5.852;2022-10-23T03:29:54;14.93;80.11
65995;HTU21D;52764;51.036;5.852;2022-10-23T03:32:20;14.93;80.07
65995;HTU21D;52764;51.036;5.852;2022-10-23T03:34:46;14.85;80.17
65995;HTU21D;52764;51.036;5.852;2022-10-23T03:37:11;16.08;80.38
65995;HTU21D;52764;51.036;5.852;2022-10-23T03:39:37;14.81;80.59
65995;HTU21D;52764;51.036;5.852;2022-10-23T03:42:03;14.75;80.83
65995;HTU21D;52764;51.036;5.852;2022-10-23T03:44:29;14.70;81.27
65995;HTU21D;52764;51.036;5.852;2022-10-23T03:46:59;14.60;81.36
65995;HTU21D;52764;51.036;5.852;2022-10-23T03:49:25;14.58;80.11
65995;HTU21D;52764;51.036;5.852;2022-10-23T03:51:51;14.56;82.15
65995;HTU21D;52764;51.036;5.852;2022-10-23T03:54:21;14.54;82.35
65995;HTU21D;52764;51.036;5.852;2022-10-23T03:56:48;14.53;82.51
65995;HTU21D;52764;51.036;5.852;2022-10-23T03:59:14;14.54;82.57
65995;HTU21D;52764;51.036;5.852;2022-10-23T04:01:40;14.18;81.24
65995;HTU21D;52764;51.036;5.852;2022-10-23T04:04:06;14.64;77.00
65995;HTU21D;52764;51.036;5.852;2022-10-23T04:06:32;14.67;82.10
65995;HTU21D;52764;51.036;5.852;2022-10-23T04:08:58;14.69;80.13
65995;HTU21D;52764;51.036;5.852;2022-10-23T04:11:23;14.68;82.04
65995;HTU21D;52764;51.036;5.852;2022-10-23T04:13:49;14.68;82.14
65995;HTU21D;52764;51.036;5.852;2022-10-23T04:16:15;-11.56;82.25
65995;HTU21D;52764;51.036;5.852;2022-10-23T04:18:43;16.28;76.62
65995;HTU21D;52764;51.036;5.852;2022-10-23T04:21:10;14.71;82.32
65995;HTU21D;52764;51.036;5.852;2022-10-23T04:23:37;14.67;82.55
65995;HTU21D;52764;51.036;5.852;2022-10-23T04:26:04;14.64;82.71
65995;HTU21D;52764;51.036;5.852;2022-10-23T04:28:30;14.64;82.88
65995;HTU21D;52764;51.036;5.852;2022-10-23T04:30:56;14.60;83.06
65995;HTU21D;52764;51.036;5.852;2022-10-23T04:33:23;14.57;83.25
65995;HTU21D;52764;51.036;5.852;2022-10-23T04:35:50;14.56;83.28
65995;HTU21D;52764;51.036;5.852;2022-10-23T04:38:16;14.59;83.33
65995;HTU21D;52764;51.036;5.852;2022-10-23T04:40:42;14.55;83.45
65995;HTU21D;52764;51.036;5.852;2022-10-23T04:43:08;14.62;82.36
65995;HTU21D;52764;51.036;5.852;2022-10-23T04:45:36;14.65;83.04
65995;HTU21D;52764;51.036;5.852;2022-10-23T04:48:02;14.65;82.96
65995;HTU21D;52764;51.036;5.852;2022-10-23T04:50:39;14.67;83.00
65995;HTU21D;52764;51.036;5.852;2022-10-23T04:53:19;14.66;82.88
65995;HTU21D;52764;51.036;5.852;2022-10-23T04:56:13;14.65;83.00
65995;HTU21D;52764;51.036;5.852;2022-10-23T04:58:54;14.58;82.69
65995;HTU21D;52764;51.036;5.852;2022-10-23T05:01:22;14.54;83.39
65995;HTU21D;52764;51.036;5.852;2022-10-23T05:03:47;14.52;83.49
65995;HTU21D;52764;51.036;5.852;2022-10-23T05:06:14;14.50;83.58
65995;HTU21D;52764;51.036;5.852;2022-10-23T05:08:58;14.51;83.70
65995;HTU21D;52764;51.036;5.852;2022-10-23T05:11:58;14.52;83.68
65995;HTU21D;52764;51.036;5.852;2022-10-23T05:14:24;15.61;79.30
65995;HTU21D;52764;51.036;5.852;2022-10-23T05:17:00;14.58;78.92
65995;HTU21D;52764;51.036;5.852;2022-10-23T05:19:37;14.58;83.29
65995;HTU21D;52764;51.036;5.852;2022-10-23T05:22:05;-20.51;82.94
65995;HTU21D;52764;51.036;5.852;2022-10-23T05:24:45;14.68;82.76
65995;HTU21D;52764;51.036;5.852;2022-10-23T05:27:11;14.69;82.61
65995;HTU21D;52764;51.036;5.852;2022-10-23T05:29:39;14.69;82.55
65995;HTU21D;52764;51.036;5.852;2022-10-23T05:32:07;14.54;82.46
65995;HTU21D;52764;51.036;5.852;2022-10-23T05:34:36;14.67;82.60
65995;HTU21D;52764;51.036;5.852;2022-10-23T05:37:06;14.68;82.62
65995;HTU21D;52764;51.036;5.852;2022-10-23T05:39:36;14.72;82.54
65995;HTU21D;52764;51.036;5.852;2022-10-23T05:42:06;14.72;82.46
65995;HTU21D;52764;51.036;5.852;2022-10-23T05:44:31;14.67;82.75
65995;HTU21D;52764;51.036;5.852;2022-10-23T05:47:14;14.66;82.87
65995;HTU21D;52764;51.036;5.852;2022-10-23T05:49:51;10.23;78.34
65995;HTU21D;52764;51.036;5.852;2022-10-23T05:52:27;14.65;82.94
65995;HTU21D;52764;51.036;5.852;2022-10-23T05:55:28;14.67;82.91
65995;HTU21D;52764;51.036;5.852;2022-10-23T05:58:15;14.70;82.64
65995;HTU21D;52764;51.036;5.852;2022-10-23T06:01:07;14.72;77.44
65995;HTU21D;52764;51.036;5.852;2022-10-23T06:04:05;14.39;82.93
65995;HTU21D;52764;51.036;5.852;2022-10-23T06:06:49;14.41;82.96
65995;HTU21D;52764;51.036;5.852;2022-10-23T06:09:15;14.68;82.92
65995;HTU21D;52764;51.036;5.852;2022-10-23T06:11:42;14.69;78.34
65995;HTU21D;52764;51.036;5.852;2022-10-23T06:14:14;14.68;83.13
65995;HTU21D;52764;51.036;5.852;2022-10-23T06:16:40;14.73;82.91
65995;HTU21D;52764;51.036;5.852;2022-10-23T06:19:09;14.79;82.70
65995;HTU21D;52764;51.036;5.852;2022-10-23T06:21:37;-19.78;82.64
65995;HTU21D;52764;51.036;5.852;2022-10-23T06:24:06;14.86;82.55
65995;HTU21D;52764;51.036;5.852;2022-10-23T06:26:52;14.89;82.58
65995;HTU21D;52764;51.036;5.852;2022-10-23T06:29:32;14.84;81.61
65995;HTU21D;52764;51.036;5.852;2022-10-23T06:31:59;14.94;81.42
65995;HTU21D;52764;51.036;5.852;2022-10-23T06:34:26;14.96;82.75
65995;HTU21D;52764;51.036;5.852;2022-10-23T06:36:51;13.85;82.71
65995;HTU21D;52764;51.036;5.852;2022-10-23T06:39:33;15.21;82.38
65995;HTU21D;52764;51.036;5.852;2022-10-23T06:42:10;15.21;82.17
65995;HTU21D;52764;51.036;5.852;2022-10-23T06:44:56;15.10;82.26
65995;HTU21D;52764;51.036;5.852;2022-10-23T06:47:42;15.01;82.44
65995;HTU21D;52764;51.036;5.852;2022-10-23T06:50:28;15.00;82.53
65995;HTU21D;52764;51.036;5.852;2022-10-23T06:52:57;-19.18;82.64
65995;HTU21D;52764;51.036;5.852;2022-10-23T06:55:22;15.03;82.14
65995;HTU21D;52764;51.036;5.852;2022-10-23T06:57:49;15.01;82.55
65995;HTU21D;52764;51.036;5.852;2022-10-23T07:00:16;15.00;82.58
65995;HTU21D;52764;51.036;5.852;2022-10-23T07:02:49;14.97;82.71
65995;HTU21D;52764;51.036;5.852;2022-10-23T07:05:15;14.97;82.68
65995;HTU21D;52764;51.036;5.852;2022-10-23T07:07:42;14.99;82.74
65995;HTU21D;52764;51.036;5.852;2022-10-23T07:10:09;15.00;82.74
65995;HTU21D;52764;51.036;5.852;2022-10-23T07:12:40;15.10;82.49
65995;HTU21D;52764;51.036;5.852;2022-10-23T07:15:29;15.10;82.49
65995;HTU21D;52764;51.036;5.852;2022-10-23T07:17:55;11.28;82.46
65995;HTU21D;52764;51.036;5.852;2022-10-23T07:20:23;14.75;82.26
65995;HTU21D;52764;51.036;5.852;2022-10-23T07:22:54;15.32;81.75
65995;HTU21D;52764;51.036;5.852;2022-10-23T07:25:29;15.38;81.59
65995;HTU21D;52764;51.036;5.852;2022-10-23T07:27:56;11.94;81.35
65995;HTU21D;52764;51.036;5.852;2022-10-23T07:30:24;15.55;81.30
65995;HTU21D;52764;51.036;5.852;2022-10-23T07:32:53;15.65;80.85
65995;HTU21D;52764;51.036;5.852;2022-10-23T07:35:24;15.76;80.66
65995;HTU21D;52764;51.036;5.852;2022-10-23T07:37:59;15.82;80.50
65995;HTU21D;52764;51.036;5.852;2022-10-23T07:40:28;15.95;80.49
65995;HTU21D;52764;51.036;5.852;2022-10-23T07:42:55;16.00;80.01
65995;HTU21D;52764;51.036;5.852;2022-10-23T07:45:21;16.04;79.78
65995;HTU21D;52764;51.036;5.852;2022-10-23T07:47:51;16.14;79.62
65995;HTU21D;52764;51.036;5.852;2022-10-23T07:50:18;16.31;79.40
65995;HTU21D;52764;51.036;5.852;2022-10-23T07:52:44;16.39;78.96
65995;HTU21D;52764;51.036;5.852;2022-10-23T07:55:12;16.50;78.72
65995;HTU21D;52764;51.036;5.852;2022-10-23T07:58:01;16.69;78.25
65995;HTU21D;52764;51.036;5.852;2022-10-23T08:00:41;16.80;77.73
65995;HTU21D;52764;51.036;5.852;2022-10-23T08:03:14;16.85;77.52
65995;HTU21D;52764;51.036;5.852;2022-10-23T08:05:40;16.85;77.45
65995;HTU21D;52764;51.036;5.852;2022-10-23T08:08:05;14.80;77.47
65995;HTU21D;52764;51.036;5.852;2022-10-23T08:10:31;17.02;77.25
65995;HTU21D;52764;51.036;5.852;2022-10-23T08:12:58;17.05;73.87
65995;HTU21D;52764;51.036;5.852;2022-10-23T08:15:43;17.11;73.64
65995;HTU21D;52764;51.036;5.852;2022-10-23T08:18:27;17.14;76.71
65995;HTU21D;52764;51.036;5.852;2022-10-23T08:21:00;15.25;73.35
65995;HTU21D;52764;51.036;5.852;2022-10-23T08:23:26;16.69;76.60
65995;HTU21D;52764;51.036;5.852;2022-10-23T08:26:00;17.18;76.70
65995;HTU21D;52764;51.036;5.852;2022-10-23T08:28:29;17.22;76.72
65995;HTU21D;52764;51.036;5.852;2022-10-23T08:30:56;17.29;76.49
65995;HTU21D;52764;51.036;5.852;2022-10-23T08:33:23;17.30;73.14
65995;HTU21D;52764;51.036;5.852;2022-10-23T08:35:49;17.37;76.36
65995;HTU21D;52764;51.036;5.852;2022-10-23T08:38:22;17.39;76.25
65995;HTU21D;52764;51.036;5.852;2022-10-23T08:40:48;17.00;76.20
65995;HTU21D;52764;51.036;5.852;2022-10-23T08:43:46;17.20;76.13
65995;HTU21D;52764;51.036;5.852;2022-10-23T08:46:44;17.50;75.94
65995;HTU21D;52764;51.036;5.852;2022-10-23T08:51:57;17.55;75.92
65995;HTU21D;52764;51.036;5.852;2022-10-23T08:54:38;17.56;75.63
65995;HTU21D;52764;51.036;5.852;2022-10-23T08:57:13;17.59;75.77
65995;HTU21D;52764;51.036;5.852;2022-10-23T08:59:48;17.66;75.58
65995;HTU21D;52764;51.036;5.852;2022-10-23T09:02:26;17.67;75.44
65995;HTU21D;52764;51.036;5.852;2022-10-23T09:04:54;17.67;75.47
65995;HTU21D;52764;51.036;5.852;2022-10-23T09:18:47;17.95;75.13
65995;HTU21D;52764;51.036;5.852;2022-10-23T09:21:14;18.02;75.13
65995;HTU21D;52764;51.036;5.852;2022-10-23T09:23:40;18.08;74.97
65995;HTU21D;52764;51.036;5.852;2022-10-23T09:26:13;18.19;74.76
65995;HTU21D;52764;51.036;5.852;2022-10-23T09:28:48;18.29;74.64
65995;HTU21D;52764;51.036;5.852;2022-10-23T09:31:15;18.39;74.42
65995;HTU21D;52764;51.036;5.852;2022-10-23T09:33:52;18.37;74.36
65995;HTU21D;52764;51.036;5.852;2022-10-23T09:36:20;18.35;74.46
65995;HTU21D;52764;51.036;5.852;2022-10-23T09:38:50;18.34;72.96
65995;HTU21D;52764;51.036;5.852;2022-10-23T09:41:17;18.40;74.86
65995;HTU21D;52764;51.036;5.852;2022-10-23T09:43:44;18.46;74.79
65995;HTU21D;52764;51.036;5.852;2022-10-23T09:46:11;18.53;74.72
65995;HTU21D;52764;51.036;5.852;2022-10-23T09:48:39;18.49;74.53
65995;HTU21D;52764;51.036;5.852;2022-10-23T09:51:17;18.68;74.34
65995;HTU21D;52764;51.036;5.852;2022-10-23T09:53:51;18.73;74.23
65995;HTU21D;52764;51.036;5.852;2022-10-23T09:56:34;18.80;73.98
65995;HTU21D;52764;51.036;5.852;2022-10-23T10:01:48;18.78;74.08
65995;HTU21D;52764;51.036;5.852;2022-10-23T10:04:36;18.73;74.18
65995;HTU21D;52764;51.036;5.852;2022-10-23T10:07:05;18.74;74.31
65995;HTU21D;52764;51.036;5.852;2022-10-23T10:09:31;18.73;74.37
65995;HTU21D;52764;51.036;5.852;2022-10-23T10:15:28;18.62;74.33
65995;HTU21D;52764;51.036;5.852;2022-10-23T10:17:56;18.72;74.74
65995;HTU21D;52764;51.036;5.852;2022-10-23T10:20:48;18.80;74.42
65995;HTU21D;52764;51.036;5.852;2022-10-23T10:23:27;18.89;73.95
65995;HTU21D;52764;51.036;5.852;2022-10-23T10:37:06;19.02;73.79
65995;HTU21D;52764;51.036;5.852;2022-10-23T10:43:16;19.18;73.48
65995;HTU21D;52764;51.036;5.852;2022-10-23T10:45:47;19.16;73.55
65995;HTU21D;52764;51.036;5.852;2022-10-23T10:56:55;19.24;73.94
65995;HTU21D;52764;51.036;5.852;2022-10-23T10:59:28;19.24;75.75
65995;HTU21D;52764;51.036;5.852;2022-10-23T11:02:04;19.26;74.07
65995;HTU21D;52764;51.036;5.852;2022-10-23T11:07:27;19.38;59.77
65995;HTU21D;52764;51.036;5.852;2022-10-23T11:09:59;19.46;73.41
65995;HTU21D;52764;51.036;5.852;2022-10-23T11:12:27;19.50;59.01
65995;HTU21D;52764;51.036;5.852;2022-10-23T11:14:54;19.63;73.23
65995;HTU21D;52764;51.036;5.852;2022-10-23T11:17:32;19.80;72.71
65995;HTU21D;52764;51.036;5.852;2022-10-23T11:20:23;19.97;56.88
65995;HTU21D;52764;51.036;5.852;2022-10-23T11:25:50;20.24;71.18
65995;HTU21D;52764;51.036;5.852;2022-10-23T11:28:22;20.28;70.93
65995;HTU21D;52764;51.036;5.852;2022-10-23T11:31:21;20.32;69.19
65995;HTU21D;52764;51.036;5.852;2022-10-23T11:36:54;20.42;69.95
65995;HTU21D;52764;51.036;5.852;2022-10-23T11:41:56;19.15;68.99
65995;HTU21D;52764;51.036;5.852;2022-10-23T11:44:43;20.48;68.50
65995;HTU21D;52764;51.036;5.852;2022-10-23T11:47:36;23.34;68.78
65995;HTU21D;52764;51.036;5.852;2022-10-23T11:52:37;20.59;68.52
65995;HTU21D;52764;51.036;5.852;2022-10-23T11:55:16;20.77;68.49
65995;HTU21D;52764;51.036;5.852;2022-10-23T12:00:33;20.92;68.75
65995;HTU21D;52764;51.036;5.852;2022-10-23T12:03:04;21.04;68.55
65995;HTU21D;52764;51.036;5.852;2022-10-23T12:05:36;23.25;68.48
65995;HTU21D;52764;51.036;5.852;2022-10-23T12:08:20;1.52;67.66
65995;HTU21D;52764;51.036;5.852;2022-10-23T12:10:48;20.93;67.13
65995;HTU21D;52764;51.036;5.852;2022-10-23T12:16:05;21.52;66.10
65995;HTU21D;52764;51.036;5.852;2022-10-23T12:18:45;21.61;65.77
65995;HTU21D;52764;51.036;5.852;2022-10-23T12:21:20;21.63;66.63
65995;HTU21D;52764;51.036;5.852;2022-10-23T12:26:47;21.72;65.40
65995;HTU21D;52764;51.036;5.852;2022-10-23T12:29:55;21.79;65.23
65995;HTU21D;52764;51.036;5.852;2022-10-23T12:40:21;21.82;65.72
65995;HTU21D;52764;51.036;5.852;2022-10-23T12:42:56;21.85;65.80
65995;HTU21D;52764;51.036;5.852;2022-10-23T12:45:29;21.87;65.96
65995;HTU21D;52764;51.036;5.852;2022-10-23T12:47:56;19.26;75.05
65995;HTU21D;52764;51.036;5.852;2022-10-23T12:50:25;21.85;67.66
65995;HTU21D;52764;51.036;5.852;2022-10-23T12:52:56;21.87;66.02
65995;HTU21D;52764;51.036;5.852;2022-10-23T12:55:23;21.89;65.93
65995;HTU21D;52764;51.036;5.852;2022-10-23T12:57:50;21.96;65.90
65995;HTU21D;52764;51.036;5.852;2022-10-23T13:00:20;21.96;65.87
65995;HTU21D;52764;51.036;5.852;2022-10-23T13:03:00;22.02;65.65
65995;HTU21D;52764;51.036;5.852;2022-10-23T13:05:28;22.28;66.71
65995;HTU21D;52764;51.036;5.852;2022-10-23T13:07:58;22.09;65.17
65995;HTU21D;52764;51.036;5.852;2022-10-23T13:10:45;22.17;73.28
65995;HTU21D;52764;51.036;5.852;2022-10-23T13:13:13;22.34;64.19
65995;HTU21D;52764;51.036;5.852;2022-10-23T13:15:43;19.99;64.21
65995;HTU21D;52764;51.036;5.852;2022-10-23T13:18:11;3.58;64.20
65995;HTU21D;52764;51.036;5.852;2022-10-23T13:23:17;22.37;63.89
65995;HTU21D;52764;51.036;5.852;2022-10-23T13:26:04;22.39;63.59
65995;HTU21D;52764;51.036;5.852;2022-10-23T13:28:49;22.43;63.49
65995;HTU21D;52764;51.036;5.852;2022-10-23T13:33:45;22.56;63.32
65995;HTU21D;52764;51.036;5.852;2022-10-23T13:38:43;26.34;63.01
65995;HTU21D;52764;51.036;5.852;2022-10-23T13:41:14;22.71;62.70
65995;HTU21D;52764;51.036;5.852;2022-10-23T13:43:42;22.67;63.04
65995;HTU21D;52764;51.036;5.852;2022-10-23T13:46:21;22.64;63.10
65995;HTU21D;52764;51.036;5.852;2022-10-23T13:48:47;22.63;62.98
65995;HTU21D;52764;51.036;5.852;2022-10-23T13:51:26;22.57;62.89
65995;HTU21D;52764;51.036;5.852;2022-10-23T13:53:53;22.57;61.86
65995;HTU21D;52764;51.036;5.852;2022-10-23T13:56:22;22.58;63.23
65995;HTU21D;52764;51.036;5.852;2022-10-23T13:58:49;22.62;63.06
65995;HTU21D;52764;51.036;5.852;2022-10-23T14:01:28;22.61;62.95
65995;HTU21D;52764;51.036;5.852;2022-10-23T14:03:55;22.53;63.45
65995;HTU21D;52764;51.036;5.852;2022-10-23T14:06:22;22.44;64.08
65995;HTU21D;52764;51.036;5.852;2022-10-23T14:08:48;22.42;64.50
65995;HTU21D;52764;51.036;5.852;2022-10-23T14:11:16;22.41;64.95
65995;HTU21D;52764;51.036;5.852;2022-10-23T14:13:42;22.39;65.02
65995;HTU21D;52764;51.036;5.852;2022-10-23T14:16:11;26.72;65.28
65995;HTU21D;52764;51.036;5.852;2022-10-23T14:18:37;22.28;65.59
65995;HTU21D;52764;51.036;5.852;2022-10-23T14:21:05;22.29;65.72
65995;HTU21D;52764;51.036;5.852;2022-10-23T14:23:31;22.28;65.82
65995;HTU21D;52764;51.036;5.852;2022-10-23T14:26:09;22.73;65.79
65995;HTU21D;52764;51.036;5.852;2022-10-23T14:28:36;22.80;65.61
65995;HTU21D;52764;51.036;5.852;2022-10-23T14:31:07;22.28;65.48
65995;HTU21D;52764;51.036;5.852;2022-10-23T14:33:34;22.24;65.67
65995;HTU21D;52764;51.036;5.852;2022-10-23T14:36:00;22.21;65.78
65995;HTU21D;52764;51.036;5.852;2022-10-23T14:38:26;22.17;65.80
65995;HTU21D;52764;51.036;5.852;2022-10-23T14:40:51;22.09;65.88
65995;HTU21D;52764;51.036;5.852;2022-10-23T14:43:17;22.03;75.59
65995;HTU21D;52764;51.036;5.852;2022-10-23T14:45:43;22.03;66.33
65995;HTU21D;52764;51.036;5.852;2022-10-23T14:48:09;22.04;64.52
65995;HTU21D;52764;51.036;5.852;2022-10-23T14:50:41;22.08;66.17
65995;HTU21D;52764;51.036;5.852;2022-10-23T14:53:07;22.07;66.15
65995;HTU21D;52764;51.036;5.852;2022-10-23T14:55:33;3.11;65.97
65995;HTU21D;52764;51.036;5.852;2022-10-23T14:57:59;22.06;65.72
65995;HTU21D;52764;51.036;5.852;2022-10-23T15:00:24;25.01;65.15
65995;HTU21D;52764;51.036;5.852;2022-10-23T15:02:50;22.02;64.24
65995;HTU21D;52764;51.036;5.852;2022-10-23T15:05:16;21.98;63.84
65995;HTU21D;52764;51.036;5.852;2022-10-23T15:07:41;22.22;63.44
65995;HTU21D;52764;51.036;5.852;2022-10-23T15:10:08;21.96;71.20
65995;HTU21D;52764;51.036;5.852;2022-10-23T15:12:35;21.93;63.31
65995;HTU21D;52764;51.036;5.852;2022-10-23T15:15:01;22.01;67.41
65995;HTU21D;52764;51.036;5.852;2022-10-23T15:17:27;21.84;63.02
65995;HTU21D;52764;51.036;5.852;2022-10-23T15:19:52;21.77;63.24
65995;HTU21D;52764;51.036;5.852;2022-10-23T15:22:18;21.76;63.28
65995;HTU21D;52764;51.036;5.852;2022-10-23T15:24:45;21.73;63.54
65995;HTU21D;52764;51.036;5.852;2022-10-23T15:27:10;21.70;63.51
65995;HTU21D;52764;51.036;5.852;2022-10-23T15:29:36;21.67;70.52
65995;HTU21D;52764;51.036;5.852;2022-10-23T15:32:02;2.42;63.61
65995;HTU21D;52764;51.036;5.852;2022-10-23T15:34:30;7.76;63.80
65995;HTU21D;52764;51.036;5.852;2022-10-23T15:36:58;21.68;63.95
65995;HTU21D;52764;51.036;5.852;2022-10-23T15:39:28;21.66;64.12
65995;HTU21D;52764;51.036;5.852;2022-10-23T15:41:58;21.64;64.48
65995;HTU21D;52764;51.036;5.852;2022-10-23T15:44:27;21.53;64.92
65995;HTU21D;52764;51.036;5.852;2022-10-23T15:46:54;21.49;65.66
65995;HTU21D;52764;51.036;5.852;2022-10-23T15:49:21;23.46;67.02
65995;HTU21D;52764;51.036;5.852;2022-10-23T15:51:50;21.00;68.57
65995;HTU21D;52764;51.036;5.852;2022-10-23T15:54:18;20.66;70.19
65995;HTU21D;52764;51.036;5.852;2022-10-23T15:56:46;21.94;71.15
65995;HTU21D;52764;51.036;5.852;2022-10-23T15:59:12;21.53;71.85
65995;HTU21D;52764;51.036;5.852;2022-10-23T16:01:38;20.29;72.26
65995;HTU21D;52764;51.036;5.852;2022-10-23T16:04:04;21.53;72.52
65995;HTU21D;52764;51.036;5.852;2022-10-23T16:06:30;20.24;73.08
65995;HTU21D;52764;51.036;5.852;2022-10-23T16:08:56;20.25;72.71
65995;HTU21D;52764;51.036;5.852;2022-10-23T16:11:26;20.12;72.80
65995;HTU21D;52764;51.036;5.852;2022-10-23T16:13:53;20.29;72.79
65995;HTU21D;52764;51.036;5.852;2022-10-23T16:16:19;20.30;72.71
65995;HTU21D;52764;51.036;5.852;2022-10-23T16:18:46;20.33;72.79
65995;HTU21D;52764;51.036;5.852;2022-10-23T16:21:18;20.40;72.31
65995;HTU21D;52764;51.036;5.852;2022-10-23T16:23:45;20.47;71.96
65995;HTU21D;52764;51.036;5.852;2022-10-23T16:26:11;20.51;71.79
65995;HTU21D;52764;51.036;5.852;2022-10-23T16:28:36;20.53;71.67
65995;HTU21D;52764;51.036;5.852;2022-10-23T16:31:08;20.56;71.69
65995;HTU21D;52764;51.036;5.852;2022-10-23T16:33:34;20.57;71.62
65995;HTU21D;52764;51.036;5.852;2022-10-23T16:36:08;22.01;71.07
65995;HTU21D;52764;51.036;5.852;2022-10-23T16:38:54;20.53;71.56
65995;HTU21D;52764;51.036;5.852;2022-10-23T16:41:40;19.65;71.56
65995;HTU21D;52764;51.036;5.852;2022-10-23T16:44:14;20.57;71.54
65995;HTU21D;52764;51.036;5.852;2022-10-23T16:46:51;20.61;71.61
65995;HTU21D;52764;51.036;5.852;2022-10-23T16:49:16;20.45;71.84
65995;HTU21D;52764;51.036;5.852;2022-10-23T16:51:42;20.44;71.86
65995;HTU21D;52764;51.036;5.852;2022-10-23T16:54:08;20.50;71.71
65995;HTU21D;52764;51.036;5.852;2022-10-23T16:56:34;20.46;71.73
65995;HTU21D;52764;51.036;5.852;2022-10-23T16:59:00;20.42;71.69
65995;HTU21D;52764;51.036;5.852;2022-10-23T17:01:29;20.40;71.55
65995;HTU21D;52764;51.036;5.852;2022-10-23T17:03:56;20.41;86.35
65995;HTU21D;52764;51.036;5.852;2022-10-23T17:06:25;20.41;71.33
65995;HTU21D;52764;51.036;5.852;2022-10-23T17:08:53;20.40;71.22
65995;HTU21D;52764;51.036;5.852;2022-10-23T17:11:22;20.44;85.74
65995;HTU21D;52764;51.036;5.852;2022-10-23T17:13:59;20.53;70.58
65995;HTU21D;52764;51.036;5.852;2022-10-23T17:16:29;20.45;70.77
65995;HTU21D;52764;51.036;5.852;2022-10-23T17:18:56;20.46;70.60
65995;HTU21D;52764;51.036;5.852;2022-10-23T17:21:22;20.44;70.44
65995;HTU21D;52764;51.036;5.852;2022-10-23T17:23:49;20.43;70.35
65995;HTU21D;52764;51.036;5.852;2022-10-23T17:26:17;24.49;70.50
65995;HTU21D;52764;51.036;5.852;2022-10-23T17:28:44;20.42;70.21
65995;HTU21D;52764;51.036;5.852;2022-10-23T17:31:16;20.35;69.94
65995;HTU21D;52764;51.036;5.852;2022-10-23T17:33:42;20.41;69.80
65995;HTU21D;52764;51.036;5.852;2022-10-23T17:36:09;20.41;69.58